Time;durP1;ratioP1;P1;durP2;ratioP2;P2;SDS_P1;SDS_P2;PMS_P1;PMS_P2;Temp;Humidity;BMP_temperature;BMP_pressure;BME280_temperature;BME280_humidity;BME280_pressure;Samples;Min_cycle;Max_cycle;Signal;HPM_P1;HPM_P2
2022/05/02 03:02:42;;;;;;;12.43;7.10;;;4.80;99.90;;;;;;4937645;29;20439;-81
2022/05/02 03:07:53;;;;;;;12.77;7.60;;;4.80;99.90;;;;;;4922015;29;20051;-80
2022/05/02 03:10:19;;;;;;;10.20;6.35;;;4.80;99.90;;;;;;4923242;29;20455;-80
2022/05/02 03:12:45;;;;;;;10.80;6.78;;;4.80;99.90;;;;;;4941294;29;20051;-81
2022/05/02 03:15:11;;;;;;;9.70;6.93;;;4.70;99.90;;;;;;4941661;29;20051;-82
2022/05/02 03:17:36;;;;;;;10.82;6.90;;;4.70;99.90;;;;;;4940843;29;20046;-81
2022/05/02 03:20:03;;;;;;;13.15;7.90;;;4.70;99.90;;;;;;4941120;29;20043;-79
2022/05/02 03:22:28;;;;;;;13.77;7.70;;;4.70;99.90;;;;;;4940861;29;20450;-81
2022/05/02 03:24:54;;;;;;;10.50;6.97;;;4.70;99.90;;;;;;4940778;29;20043;-82
2022/05/02 03:27:19;;;;;;;9.88;6.82;;;4.70;99.90;;;;;;4940638;29;20130;-80
2022/05/02 03:29:45;;;;;;;11.55;7.63;;;4.60;99.90;;;;;;4958262;29;20039;-81
2022/05/02 03:32:11;;;;;;;13.73;7.55;;;4.60;99.90;;;;;;4940471;29;20063;-80
2022/05/02 03:34:36;;;;;;;14.48;8.00;;;4.60;99.90;;;;;;4940610;29;20395;-79
2022/05/02 03:37:02;;;;;;;10.73;7.25;;;4.60;99.90;;;;;;4940823;29;20035;-80
2022/05/02 03:39:28;;;;;;;13.02;7.65;;;4.60;99.90;;;;;;4940613;29;20399;-79
2022/05/02 03:41:54;;;;;;;13.77;7.97;;;4.60;99.90;;;;;;4940446;29;20043;-81
2022/05/02 03:44:20;;;;;;;13.60;8.15;;;4.50;99.90;;;;;;4940541;29;20047;-79
2022/05/02 03:46:45;;;;;;;15.55;8.55;;;4.50;99.90;;;;;;4940424;29;20085;-81
2022/05/02 03:49:11;;;;;;;13.43;8.05;;;4.50;99.90;;;;;;4940699;29;20060;-81
2022/05/02 03:51:40;;;;;;;14.02;7.75;;;4.50;99.90;;;;;;4957721;29;20561;-80
2022/05/02 03:54:06;;;;;;;10.80;6.68;;;4.50;99.90;;;;;;4940463;29;20573;-79
2022/05/02 03:56:31;;;;;;;14.23;7.85;;;4.50;99.90;;;;;;4944065;28;20062;-81
2022/05/02 03:58:57;;;;;;;14.88;7.38;;;4.40;99.90;;;;;;4949595;29;20047;-80
2022/05/02 04:01:23;;;;;;;14.35;8.00;;;4.40;99.90;;;;;;4958794;29;20074;-81
2022/05/02 04:03:49;;;;;;;14.15;8.02;;;4.40;99.90;;;;;;4957494;29;20086;-80
2022/05/02 04:06:15;;;;;;;13.93;7.38;;;4.40;99.90;;;;;;4940097;29;20054;-80
2022/05/02 04:08:41;;;;;;;9.98;6.55;;;4.40;99.90;;;;;;4924070;29;20044;-79
2022/05/02 04:11:06;;;;;;;11.95;7.20;;;4.40;99.90;;;;;;4939799;29;20102;-81
2022/05/02 04:13:32;;;;;;;11.88;7.57;;;4.40;99.90;;;;;;4924291;29;20053;-81
2022/05/02 04:15:58;;;;;;;13.85;7.88;;;4.40;99.90;;;;;;4939968;29;20051;-81
2022/05/02 04:18:23;;;;;;;14.88;8.90;;;4.40;99.90;;;;;;4940419;29;20054;-80
2022/05/02 04:20:49;;;;;;;17.40;9.40;;;4.30;99.90;;;;;;4940446;29;20039;-80
2022/05/02 04:23:15;;;;;;;18.85;8.63;;;4.30;99.90;;;;;;4940246;29;20042;-82
2022/05/02 04:25:40;;;;;;;16.90;9.00;;;4.30;99.90;;;;;;4940002;29;20130;-81
2022/05/02 04:28:08;;;;;;;15.25;8.48;;;4.30;99.90;;;;;;4939763;29;20035;-81
2022/05/02 04:30:34;;;;;;;14.63;7.93;;;4.30;99.90;;;;;;4939667;29;20121;-80
2022/05/02 04:33:00;;;;;;;15.65;8.15;;;4.30;99.90;;;;;;4956794;29;20511;-79
2022/05/02 04:35:26;;;;;;;16.15;7.88;;;4.30;99.90;;;;;;4939907;29;20043;-79
2022/05/02 04:37:51;;;;;;;13.18;8.55;;;4.30;99.90;;;;;;4923807;29;20106;-80
2022/05/02 04:40:17;;;;;;;13.77;8.30;;;4.30;99.90;;;;;;4924110;29;20480;-82
2022/05/02 04:42:43;;;;;;;16.10;8.80;;;4.30;99.90;;;;;;4939549;29;20467;-82
2022/05/02 04:45:08;;;;;;;16.48;8.75;;;4.30;99.90;;;;;;4939660;29;20118;-82
2022/05/02 04:47:34;;;;;;;18.48;9.25;;;4.30;99.90;;;;;;4939519;29;20407;-80
2022/05/02 04:50:00;;;;;;;17.30;8.55;;;4.30;99.90;;;;;;4939595;29;20039;-81
2022/05/02 04:52:25;;;;;;;15.13;9.90;;;4.30;99.90;;;;;;4939341;29;20478;-80
2022/05/02 04:54:51;;;;;;;18.15;9.38;;;4.40;99.90;;;;;;4939144;29;20098;-81
2022/05/02 04:57:16;;;;;;;19.60;10.95;;;4.40;99.90;;;;;;4956997;29;20078;-81
2022/05/02 04:59:42;;;;;;;18.20;10.23;;;4.40;99.90;;;;;;4939398;29;20372;-81
2022/05/02 05:02:09;;;;;;;19.60;10.40;;;4.40;99.90;;;;;;4939221;29;20043;-80
2022/05/02 05:04:35;;;;;;;17.02;10.48;;;4.40;99.90;;;;;;4956998;29;20054;-80
2022/05/02 05:07:01;;;;;;;18.92;11.00;;;4.40;99.90;;;;;;4938938;29;20395;-80
2022/05/02 05:09:26;;;;;;;19.50;11.68;;;4.40;99.90;;;;;;4939613;29;20054;-81
2022/05/02 05:12:07;;;;;;;23.88;12.40;;;4.40;99.90;;;;;;4939114;29;20530;-81
2022/05/02 05:18:06;;;;;;;22.70;11.68;;;4.40;99.90;;;;;;4956340;29;20486;-80
2022/05/02 05:20:49;;;;;;;24.08;12.18;;;4.40;99.90;;;;;;4926922;29;20063;-80
2022/05/02 05:23:30;;;;;;;21.98;12.02;;;4.40;99.90;;;;;;4939000;29;20050;-81
2022/05/02 05:26:04;;;;;;;22.30;12.80;;;4.50;99.90;;;;;;4956294;29;20035;-80
2022/05/02 05:29:10;;;;;;;22.27;12.25;;;4.50;99.90;;;;;;4922877;29;20126;-80
2022/05/02 05:31:48;;;;;;;22.23;12.77;;;4.60;99.90;;;;;;4917197;29;20523;-80
2022/05/02 05:34:26;;;;;;;27.45;14.15;;;4.60;99.90;;;;;;4956050;29;20102;-82
2022/05/02 05:37:01;;;;;;;28.15;13.95;;;4.70;99.90;;;;;;4922607;29;20547;-81
2022/05/02 05:39:49;;;;;;;22.63;13.40;;;4.70;99.90;;;;;;4938717;29;20126;-82
2022/05/02 05:42:45;;;;;;;35.67;14.52;;;4.80;99.90;;;;;;4955645;29;20058;-79
2022/05/02 05:45:14;;;;;;;32.72;15.43;;;4.90;99.90;;;;;;4938700;29;20166;-82
2022/05/02 05:47:58;;;;;;;40.50;13.82;;;5.00;99.90;;;;;;4938898;29;20113;-81
2022/05/02 05:50:29;;;;;;;26.75;13.98;;;5.00;99.90;;;;;;4938219;29;20114;-80
2022/05/02 05:53:25;;;;;;;27.58;14.07;;;5.10;99.90;;;;;;4938354;29;20585;-80
2022/05/02 05:56:10;;;;;;;28.98;14.15;;;5.10;99.90;;;;;;4955723;29;20045;-79
2022/05/02 05:59:10;;;;;;;34.28;16.75;;;5.20;99.90;;;;;;4939485;29;20043;-81
2022/05/02 06:01:56;;;;;;;25.40;13.77;;;5.30;99.90;;;;;;4937751;29;20039;-81
2022/05/02 06:04:27;;;;;;;23.17;13.73;;;5.40;99.90;;;;;;4900323;29;20098;-81
2022/05/02 06:06:54;;;;;;;25.17;14.93;;;5.40;99.90;;;;;;4938173;29;20058;-79
2022/05/02 06:09:20;;;;;;;24.20;14.75;;;5.50;99.90;;;;;;4922472;29;20079;-81
2022/05/02 06:11:49;;;;;;;25.20;14.45;;;5.60;99.90;;;;;;4955209;29;20047;-82
2022/05/02 06:14:15;;;;;;;26.67;15.10;;;5.60;99.90;;;;;;4938221;29;20063;-84
2022/05/02 06:19:33;;;;;;;25.05;14.07;;;5.70;99.90;;;;;;4938709;28;20077;-79
2022/05/02 06:22:01;;;;;;;26.98;15.18;;;5.80;99.90;;;;;;4958919;29;20075;-82
2022/05/02 06:24:30;;;;;;;25.75;14.02;;;5.80;99.90;;;;;;4942918;29;20043;-80
2022/05/02 06:26:57;;;;;;;25.20;14.45;;;5.90;99.90;;;;;;4942138;29;20051;-81
2022/05/02 06:29:24;;;;;;;29.15;14.88;;;5.90;99.90;;;;;;4941877;29;20106;-81
2022/05/02 06:31:55;;;;;;;23.65;14.25;;;6.00;99.90;;;;;;4941930;29;20043;-81
2022/05/02 06:34:25;;;;;;;27.40;15.40;;;6.10;99.90;;;;;;4941852;29;20440;-80
2022/05/02 06:37:16;;;;;;;29.38;15.38;;;6.10;99.90;;;;;;4959445;29;20110;-81
2022/05/02 06:40:03;;;;;;;24.60;13.68;;;6.20;99.90;;;;;;4941671;29;20043;-81
2022/05/02 06:42:37;;;;;;;28.05;15.38;;;6.30;99.90;;;;;;4941746;29;20071;-80
2022/05/02 06:45:08;;;;;;;27.38;14.80;;;6.40;99.90;;;;;;4942511;29;20070;-81
2022/05/02 06:47:33;;;;;;;29.30;14.50;;;6.40;99.90;;;;;;4925741;29;20044;-80
2022/05/02 06:50:02;;;;;;;23.95;13.77;;;6.50;99.90;;;;;;4941749;29;20043;-80
2022/05/02 06:52:32;;;;;;;24.35;14.27;;;6.60;99.90;;;;;;4941677;29;20498;-80
2022/05/02 06:55:12;;;;;;;26.88;14.75;;;6.60;99.90;;;;;;4941970;29;20082;-80
2022/05/02 06:58:07;;;;;;;21.33;14.02;;;6.70;99.90;;;;;;4925922;29;20043;-80
2022/05/02 07:00:43;;;;;;;23.25;14.38;;;6.80;99.90;;;;;;4942393;29;20043;-81
2022/05/02 07:03:45;;;;;;;23.10;13.07;;;6.90;99.90;;;;;;4926101;29;20035;-81
2022/05/02 07:06:27;;;;;;;20.13;12.68;;;7.00;99.90;;;;;;4911480;29;20055;-81
2022/05/02 07:09:00;;;;;;;24.98;13.20;;;7.10;99.90;;;;;;4941568;29;20043;-80
2022/05/02 07:11:43;;;;;;;20.52;12.63;;;7.30;99.90;;;;;;4941473;29;20078;-79
2022/05/02 07:14:12;;;;;;;23.90;13.30;;;7.40;99.90;;;;;;4941155;29;20562;-83
2022/05/02 07:16:47;;;;;;;20.67;12.25;;;7.50;99.90;;;;;;4941626;29;20043;-79
2022/05/02 07:19:48;;;;;;;22.38;12.05;;;7.60;99.90;;;;;;4959283;29;20043;-78
2022/05/02 07:22:26;;;;;;;19.73;11.90;;;7.70;99.90;;;;;;4959080;29;20051;-82
2022/05/02 07:25:13;;;;;;;23.05;12.02;;;7.90;99.90;;;;;;4941652;29;20496;-82
2022/05/02 07:28:14;;;;;;;21.65;12.48;;;7.90;99.90;;;;;;4941306;29;20047;-82
2022/05/02 07:30:40;;;;;;;19.05;12.07;;;8.00;99.90;;;;;;4931122;29;20087;-83
2022/05/02 07:33:07;;;;;;;19.23;11.80;;;8.10;99.90;;;;;;4940280;29;20138;-79
2022/05/02 07:35:34;;;;;;;21.77;11.70;;;8.30;99.90;;;;;;4925650;29;20488;-83
2022/05/02 07:38:02;;;;;;;18.27;11.27;;;8.40;99.90;;;;;;4941297;29;20054;-79
2022/05/02 07:40:29;;;;;;;17.23;10.18;;;8.60;99.90;;;;;;4941642;29;20047;-82
2022/05/02 07:42:56;;;;;;;17.48;11.02;;;8.70;99.90;;;;;;4941817;29;20047;-82
2022/05/02 07:45:28;;;;;;;16.73;11.45;;;8.80;99.90;;;;;;4941541;29;20051;-83
2022/05/02 07:47:58;;;;;;;17.40;10.82;;;8.90;99.90;;;;;;4941325;29;20126;-84
2022/05/02 07:50:25;;;;;;;16.92;10.50;;;9.10;99.90;;;;;;4942320;29;20050;-82
2022/05/02 07:52:52;;;;;;;18.45;10.80;;;9.20;99.90;;;;;;4941389;29;20130;-80
2022/05/02 07:55:22;;;;;;;19.20;10.73;;;9.30;99.90;;;;;;4952708;29;20038;-84
2022/05/02 07:57:48;;;;;;;15.88;10.20;;;9.50;99.90;;;;;;4922237;29;20134;-81
2022/05/02 08:00:16;;;;;;;17.02;9.85;;;9.60;99.90;;;;;;4922680;29;20525;-80
2022/05/02 08:02:42;;;;;;;16.50;10.13;;;9.70;99.90;;;;;;4923865;29;20051;-82
2022/05/02 08:05:08;;;;;;;17.38;9.90;;;9.80;99.90;;;;;;4927212;29;20039;-81
2022/05/02 08:07:44;;;;;;;19.80;9.98;;;9.90;99.90;;;;;;4927858;29;20127;-81
2022/05/02 08:10:34;;;;;;;14.18;10.18;;;10.00;99.90;;;;;;4934305;29;20102;-82
2022/05/02 08:13:31;;;;;;;17.58;10.18;;;10.10;99.90;;;;;;4940223;29;20050;-82
2022/05/02 08:16:05;;;;;;;16.50;9.57;;;10.20;99.90;;;;;;4924182;29;20123;-85
2022/05/02 08:19:02;;;;;;;14.20;9.23;;;10.30;99.90;;;;;;4938914;29;20071;-80
2022/05/02 08:21:35;;;;;;;17.05;10.43;;;10.50;99.90;;;;;;4938819;29;20046;-83
2022/05/02 08:27:34;;;;;;;17.08;9.35;;;11.20;99.90;;;;;;4921732;29;20051;-80
2022/05/02 08:30:01;;;;;;;17.27;9.77;;;12.00;99.90;;;;;;4921650;29;20082;-83
2022/05/02 08:32:59;;;;;;;15.02;8.98;;;12.70;99.90;;;;;;4921396;29;20058;-81
2022/05/02 08:35:49;;;;;;;13.95;8.73;;;13.50;99.90;;;;;;4921744;29;20043;-81
2022/05/02 08:38:55;;;;;;;12.90;8.40;;;14.50;99.90;;;;;;4921274;29;20048;-82
2022/05/02 08:41:30;;;;;;;14.05;7.95;;;15.40;99.90;;;;;;4861571;29;20041;-80
2022/05/02 08:44:32;;;;;;;12.35;8.20;;;15.70;99.90;;;;;;4845817;29;20048;-80
2022/05/02 08:47:27;;;;;;;14.13;8.75;;;15.60;99.90;;;;;;4921581;29;20102;-83
2022/05/02 08:50:26;;;;;;;18.33;8.52;;;15.10;99.90;;;;;;4921273;29;20400;-82
2022/05/02 08:53:17;;;;;;;12.95;8.10;;;14.90;99.90;;;;;;4921783;29;20088;-83
2022/05/02 08:56:02;;;;;;;11.38;7.18;;;14.60;99.90;;;;;;4937581;29;20076;-82
2022/05/02 08:58:58;;;;;;;10.88;7.68;;;14.30;99.90;;;;;;4921198;29;20100;-82
2022/05/02 09:01:43;;;;;;;13.68;7.88;;;14.20;99.90;;;;;;4920510;29;20048;-82
2022/05/02 09:04:40;;;;;;;9.95;7.57;;;14.10;99.90;;;;;;4920701;29;20492;-80
2022/05/02 09:07:24;;;;;;;11.15;7.32;;;14.40;99.90;;;;;;4920713;29;20444;-83
2022/05/02 09:10:06;;;;;;;11.27;7.68;;;14.90;99.90;;;;;;4921264;29;20039;-81
2022/05/02 09:12:52;;;;;;;9.02;7.03;;;15.70;99.90;;;;;;4920918;29;20044;-82
2022/05/02 09:15:47;;;;;;;11.02;7.10;;;15.90;99.90;;;;;;4920204;29;20476;-81
2022/05/02 09:18:22;;;;;;;14.20;7.17;;;15.80;99.90;;;;;;4920291;29;20142;-82
2022/05/02 09:21:08;;;;;;;9.63;7.72;;;16.00;99.90;;;;;;4920025;29;20044;-81
2022/05/02 09:24:21;;;;;;;10.38;6.07;;;16.60;99.90;;;;;;4920323;29;20043;-80
2022/05/02 09:27:10;;;;;;;9.68;6.40;;;17.00;99.90;;;;;;4920597;29;20091;-81
2022/05/02 09:29:57;;;;;;;14.60;7.13;;;17.20;99.90;;;;;;4936758;29;20067;-82
2022/05/02 09:32:25;;;;;;;11.40;7.10;;;17.20;99.90;;;;;;4920195;29;20485;-81
2022/05/02 09:35:03;;;;;;;11.32;6.65;;;17.10;99.90;;;;;;4919802;29;20515;-82
2022/05/02 09:37:40;;;;;;;13.63;7.03;;;16.70;99.90;;;;;;4920132;29;20044;-80
2022/05/02 09:40:16;;;;;;;30.83;8.23;;;16.40;99.90;;;;;;4920460;29;20040;-81
2022/05/02 09:43:20;;;;;;;9.30;6.25;;;16.30;99.90;;;;;;4920170;29;20086;-80
2022/05/02 09:52:15;;;;;;;10.40;5.85;;;16.00;99.90;;;;;;4919869;29;20082;-82
2022/05/02 09:58:07;;;;;;;8.23;5.47;;;16.40;99.90;;;;;;4919965;29;20051;-82
2022/05/02 10:03:24;;;;;;;7.70;5.10;;;16.80;99.90;;;;;;4920245;29;20051;-81
2022/05/02 10:06:00;;;;;;;9.43;5.32;;;16.80;99.80;;;;;;4920513;29;20043;-79
2022/05/02 10:08:38;;;;;;;;;;;16.90;98.80;;;;;;4921096;29;20126;-79
2022/05/02 10:11:11;;;;;;;10.13;5.80;;;16.90;96.60;;;;;;4937283;29;19961;-80
2022/05/02 10:14:09;;;;;;;7.60;4.93;;;16.90;98.30;;;;;;4920364;29;20078;-82
2022/05/02 10:16:47;;;;;;;8.45;5.43;;;17.20;98.40;;;;;;4920090;29;20056;-81
2022/05/02 10:19:16;;;;;;;9.73;5.65;;;17.30;99.10;;;;;;4920366;29;20047;-82
2022/05/02 10:22:14;;;;;;;8.70;4.68;;;17.30;97.90;;;;;;4920183;29;20112;-81
2022/05/02 10:24:49;;;;;;;7.60;5.30;;;17.30;96.70;;;;;;4921594;29;20334;-83
2022/05/02 10:27:47;;;;;;;8.10;4.47;;;17.40;96.60;;;;;;4921062;29;20094;-84
2022/05/02 10:30:14;;;;;;;8.73;4.90;;;17.30;92.60;;;;;;4920616;29;20099;-82
2022/05/02 10:32:45;;;;;;;9.88;5.38;;;17.30;91.60;;;;;;4937119;29;20543;-80
2022/05/02 10:35:17;;;;;;;8.63;4.68;;;17.20;90.70;;;;;;4919628;29;20047;-84
2022/05/02 10:38:01;;;;;;;7.85;4.88;;;17.20;90.40;;;;;;4919242;29;20063;-84
2022/05/02 10:40:46;;;;;;;8.50;4.05;;;17.30;87.20;;;;;;4919975;29;20114;-80
2022/05/02 10:43:23;;;;;;;6.60;4.63;;;17.30;90.90;;;;;;4919717;29;20115;-80
2022/05/02 10:45:49;;;;;;;8.90;4.78;;;17.50;90.10;;;;;;4936165;29;20500;-83
2022/05/02 10:48:37;;;;;;;7.63;4.32;;;17.70;88.50;;;;;;4935591;29;20052;-80
2022/05/02 10:51:05;;;;;;;9.02;4.00;;;17.90;85.40;;;;;;4936626;29;20043;-81
2022/05/02 10:53:39;;;;;;;6.18;4.20;;;18.20;89.20;;;;;;4919700;29;20048;-82
2022/05/02 10:56:31;;;;;;;8.93;4.50;;;18.40;86.00;;;;;;4919332;29;20055;-82
2022/05/02 10:59:02;;;;;;;7.53;4.50;;;18.50;82.90;;;;;;4936437;29;20048;-80
2022/05/02 11:02:22;;;;;;;9.65;6.18;;;18.50;81.40;;;;;;4937305;29;20046;-80
2022/05/02 11:04:51;;;;;;;7.75;5.28;;;18.60;82.30;;;;;;4936601;29;20140;-80
2022/05/02 11:07:44;;;;;;;9.35;5.88;;;18.80;83.70;;;;;;4938084;29;20437;-82
2022/05/02 11:10:12;;;;;;;7.88;5.57;;;18.70;79.60;;;;;;4922741;29;20047;-79
2022/05/02 11:12:45;;;;;;;7.88;5.75;;;18.80;79.10;;;;;;4940052;29;20051;-80
2022/05/02 11:15:17;;;;;;;6.47;5.00;;;18.70;76.10;;;;;;4923792;29;20377;-79
2022/05/02 11:18:07;;;;;;;6.85;4.85;;;18.60;76.70;;;;;;4940213;29;20043;-80
2022/05/02 11:20:46;;;;;;;9.15;5.20;;;18.70;77.00;;;;;;4939997;29;20091;-82
2022/05/02 11:23:51;;;;;;;7.20;4.30;;;19.00;77.30;;;;;;4907814;29;20044;-80
2022/05/02 11:26:32;;;;;;;7.88;4.82;;;19.20;78.00;;;;;;4939524;29;20051;-81
2022/05/02 11:29:40;;;;;;;7.72;4.13;;;19.20;75.50;;;;;;4923236;29;20482;-79
2022/05/02 11:32:20;;;;;;;6.25;4.75;;;19.40;75.90;;;;;;4922624;29;20050;-80
2022/05/02 11:35:13;;;;;;;7.10;5.03;;;19.50;74.30;;;;;;4922820;29;20055;-81
2022/05/02 11:38:09;;;;;;;8.80;4.30;;;19.80;73.70;;;;;;4922613;29;20123;-80
2022/05/02 11:40:45;;;;;;;7.28;4.85;;;20.00;70.90;;;;;;4921993;29;20040;-79
2022/05/02 11:43:18;;;;;;;6.95;4.43;;;20.10;70.10;;;;;;4938356;29;20081;-79
2022/05/02 11:45:55;;;;;;;8.73;4.50;;;20.10;67.40;;;;;;4921419;29;20484;-81
2022/05/02 11:48:21;;;;;;;9.80;4.50;;;20.00;66.40;;;;;;4921138;29;20058;-81
2022/05/02 11:50:48;;;;;;;8.20;4.45;;;20.10;66.30;;;;;;4921538;29;20126;-81
2022/05/02 11:53:16;;;;;;;6.75;4.65;;;20.10;65.10;;;;;;4941220;29;20047;-82
2022/05/02 11:55:46;;;;;;;7.10;4.20;;;20.20;65.10;;;;;;4940363;29;20043;-80
2022/05/02 11:58:24;;;;;;;5.57;4.20;;;20.40;65.20;;;;;;4940836;29;20043;-83
2022/05/02 12:01:02;;;;;;;6.07;4.20;;;20.50;63.70;;;;;;4940814;29;20035;-80
2022/05/02 12:03:51;;;;;;;30.80;6.78;;;20.60;64.60;;;;;;4925247;29;20039;-79
2022/05/02 12:06:22;;;;;;;8.95;4.40;;;20.80;64.70;;;;;;4958449;29;20039;-78
2022/05/02 12:08:51;;;;;;;5.28;3.78;;;21.00;63.00;;;;;;4941284;29;20388;-83
2022/05/02 12:11:16;;;;;;;6.30;3.80;;;21.00;62.00;;;;;;4940757;29;20050;-80
2022/05/02 12:13:47;;;;;;;6.70;4.32;;;21.00;62.20;;;;;;4925281;29;20118;-80
2022/05/02 12:16:15;;;;;;;6.88;4.43;;;21.00;61.00;;;;;;4940646;29;20050;-83
2022/05/02 12:18:45;;;;;;;7.53;4.50;;;21.10;61.10;;;;;;4956691;28;20043;-83
2022/05/02 12:21:16;;;;;;;7.57;4.28;;;21.10;60.70;;;;;;4940229;29;20419;-81
2022/05/02 12:23:43;;;;;;;6.38;4.00;;;21.20;60.30;;;;;;4940178;29;20039;-81
2022/05/02 12:26:18;;;;;;;7.72;4.05;;;21.20;59.40;;;;;;4957304;29;20364;-81
2022/05/02 12:28:47;;;;;;;6.88;4.32;;;21.20;59.00;;;;;;4924315;29;20039;-82
2022/05/02 12:31:16;;;;;;;6.65;4.90;;;21.30;59.20;;;;;;4939785;29;20524;-82
2022/05/02 12:33:45;;;;;;;5.10;4.07;;;21.30;59.20;;;;;;4957113;29;20054;-80
2022/05/02 12:36:14;;;;;;;6.95;4.90;;;21.30;59.30;;;;;;4939342;29;20044;-82
2022/05/02 12:38:43;;;;;;;5.85;4.43;;;21.40;59.70;;;;;;4957737;29;20130;-80
2022/05/02 12:41:11;;;;;;;26.92;6.78;;;21.40;59.20;;;;;;4941412;29;20088;-78
2022/05/02 12:43:45;;;;;;;8.00;4.93;;;21.20;58.90;;;;;;4957234;29;20043;-79
2022/05/02 12:46:14;;;;;;;8.82;4.95;;;21.40;61.10;;;;;;4957209;29;20090;-81
2022/05/02 12:48:41;;;;;;;8.38;5.03;;;21.50;60.40;;;;;;4939946;29;20487;-79
2022/05/02 12:51:16;;;;;;;7.45;4.75;;;21.80;59.10;;;;;;4940244;29;20393;-81
2022/05/02 12:56:26;;;;;;;10.75;5.15;;;22.00;58.50;;;;;;4957078;29;20302;-81
2022/05/02 13:01:44;;;;;;;6.93;4.88;;;21.80;55.90;;;;;;4939166;29;20051;-79
2022/05/02 13:04:18;;;;;;;15.23;5.97;;;21.70;56.40;;;;;;4939690;29;20031;-81
2022/05/02 13:06:45;;;;;;;7.28;5.20;;;21.50;58.30;;;;;;4956757;29;20043;-80
2022/05/02 13:09:15;;;;;;;16.08;5.53;;;21.60;59.10;;;;;;4939448;29;20137;-80
2022/05/02 13:11:43;;;;;;;13.70;5.30;;;21.70;58.60;;;;;;4956603;29;20047;-81
2022/05/02 13:14:25;;;;;;;11.20;4.90;;;21.70;58.00;;;;;;4956544;29;20551;-80
2022/05/02 13:16:51;;;;;;;9.00;4.38;;;21.90;58.10;;;;;;4956538;29;20098;-79
2022/05/02 13:19:17;;;;;;;28.27;5.90;;;22.10;58.00;;;;;;4956339;29;20039;-80
2022/05/02 13:21:55;;;;;;;7.25;4.60;;;22.30;57.10;;;;;;4956544;29;20031;-80
2022/05/02 13:24:21;;;;;;;7.60;4.97;;;22.30;57.20;;;;;;4956753;29;20424;-81
2022/05/02 13:27:19;;;;;;;7.85;4.88;;;22.30;57.20;;;;;;4956970;29;20055;-80
2022/05/02 13:30:27;;;;;;;7.28;5.55;;;22.50;58.50;;;;;;4956340;28;20078;-81
2022/05/02 13:33:03;;;;;;;9.80;5.10;;;22.60;57.70;;;;;;4949432;29;20106;-81
2022/05/02 13:35:33;;;;;;;8.38;4.97;;;22.30;56.70;;;;;;4957101;29;20047;-80
2022/05/02 13:38:10;;;;;;;8.13;5.00;;;21.90;57.20;;;;;;4939337;29;20075;-81
2022/05/02 13:41:05;;;;;;;7.53;5.03;;;21.30;57.80;;;;;;4956321;29;20113;-81
2022/05/02 13:43:46;;;;;;;8.38;4.75;;;21.20;57.70;;;;;;4939487;29;20039;-80
2022/05/02 13:46:28;;;;;;;8.18;5.38;;;21.40;58.40;;;;;;4956470;29;20050;-80
2022/05/02 13:49:06;;;;;;;7.82;5.00;;;21.70;57.80;;;;;;4956935;29;20472;-79
2022/05/02 13:51:38;;;;;;;9.60;5.00;;;21.50;57.10;;;;;;4956106;29;20551;-79
2022/05/02 13:54:09;;;;;;;7.60;4.70;;;21.50;57.70;;;;;;4939281;29;20086;-81
2022/05/02 13:56:48;;;;;;;6.80;4.72;;;21.70;58.10;;;;;;4939136;29;20043;-78
2022/05/02 13:59:50;;;;;;;7.32;4.68;;;21.80;58.30;;;;;;4939371;29;20122;-79
2022/05/02 14:03:10;;;;;;;6.60;4.28;;;22.10;58.60;;;;;;4939317;29;20046;-76
2022/05/02 14:05:55;;;;;;;7.20;5.00;;;21.80;57.70;;;;;;4949145;29;20046;-78
2022/05/02 14:08:29;;;;;;;5.65;4.57;;;21.40;57.90;;;;;;4949186;29;20107;-78
2022/05/02 14:10:58;;;;;;;7.10;4.82;;;21.40;58.90;;;;;;4956877;29;20131;-78
2022/05/02 14:13:26;;;;;;;8.25;5.10;;;21.70;59.50;;;;;;4938767;29;20047;-82
2022/05/02 14:15:52;;;;;;;7.53;4.85;;;22.00;58.50;;;;;;4939320;29;20070;-79
2022/05/02 14:18:19;;;;;;;7.15;4.60;;;22.30;57.60;;;;;;4938918;29;20050;-81
2022/05/02 14:20:48;;;;;;;7.10;4.50;;;22.10;57.00;;;;;;4939052;29;20043;-79
2022/05/02 14:23:14;;;;;;;7.63;4.13;;;21.90;56.80;;;;;;4938575;29;20078;-79
2022/05/02 14:25:46;;;;;;;10.23;4.13;;;21.80;57.10;;;;;;4938858;29;20040;-78
2022/05/02 14:28:16;;;;;;;6.10;4.20;;;21.70;57.80;;;;;;4938425;29;20035;-80
2022/05/02 14:30:46;;;;;;;6.95;4.63;;;21.90;58.30;;;;;;4938694;29;20555;-77
2022/05/02 14:33:28;;;;;;;6.85;4.32;;;22.20;57.00;;;;;;4939443;29;20066;-80
2022/05/02 14:35:55;;;;;;;6.25;3.97;;;22.40;56.30;;;;;;4938911;29;20086;-77
2022/05/02 14:38:25;;;;;;;7.40;3.60;;;22.70;56.00;;;;;;4938705;29;20043;-80
2022/05/02 14:40:52;;;;;;;8.23;4.20;;;23.00;55.10;;;;;;4938991;28;20039;-80
2022/05/02 14:43:18;;;;;;;5.53;3.85;;;22.70;53.20;;;;;;4942543;29;20043;-78
2022/05/02 14:45:45;;;;;;;4.72;3.53;;;22.30;53.90;;;;;;4959681;29;20118;-79
2022/05/02 14:48:15;;;;;;;8.85;4.45;;;22.40;55.00;;;;;;4942161;29;20059;-79
2022/05/02 14:50:43;;;;;;;5.90;3.67;;;22.60;55.00;;;;;;4959486;29;20116;-79
2022/05/02 14:53:10;;;;;;;6.93;3.70;;;22.80;55.40;;;;;;4941880;29;20466;-81
2022/05/02 14:55:40;;;;;;;6.28;3.33;;;23.10;55.50;;;;;;4942184;29;20081;-81
2022/05/02 14:58:09;;;;;;;5.50;3.20;;;23.40;55.30;;;;;;4941997;29;20051;-80
2022/05/02 15:00:42;;;;;;;6.35;3.33;;;23.50;54.60;;;;;;4941593;29;20054;-81
2022/05/02 15:03:12;;;;;;;4.70;3.35;;;23.70;54.00;;;;;;4942026;29;20506;-79
2022/05/02 15:05:40;;;;;;;5.65;2.88;;;23.70;52.40;;;;;;4959632;29;20083;-81
2022/05/02 15:08:43;;;;;;;6.45;3.70;;;23.60;52.90;;;;;;4941937;29;20089;-79
2022/05/02 15:11:39;;;;;;;5.05;3.42;;;23.20;52.10;;;;;;4884464;29;20116;-79
2022/05/02 15:14:31;;;;;;;;;;;22.50;52.80;;;;;;4942044;29;20062;-80
2022/05/02 15:17:30;;;;;;;5.18;3.35;;;21.80;53.70;;;;;;4959754;29;19931;-80
2022/05/02 15:20:10;;;;;;;5.05;3.42;;;21.30;55.30;;;;;;4926215;29;20075;-81
2022/05/02 15:22:40;;;;;;;5.03;3.15;;;20.70;57.20;;;;;;4941287;29;20071;-80
2022/05/02 15:25:09;;;;;;;8.10;3.67;;;20.50;57.60;;;;;;4942004;29;20060;-79
2022/05/02 15:39:06;;;;;;;6.78;4.15;;;19.10;62.80;;;;;;4941729;29;20055;-80
2022/05/02 15:41:47;;;;;;;5.38;3.67;;;18.80;65.90;;;;;;4894499;29;20062;-81
2022/05/02 15:44:18;;;;;;;6.93;3.70;;;18.80;66.70;;;;;;4941277;29;20174;-82
2022/05/02 15:46:50;;;;;;;6.18;3.53;;;18.60;67.10;;;;;;4941104;29;20035;-79
2022/05/02 15:49:17;;;;;;;8.52;4.05;;;18.50;68.90;;;;;;4941271;29;20055;-81
2022/05/02 15:51:58;;;;;;;6.75;4.07;;;18.40;69.30;;;;;;4958394;29;20035;-78
2022/05/02 15:54:26;;;;;;;6.18;3.88;;;18.30;70.10;;;;;;4957931;28;20035;-81
2022/05/02 15:56:57;;;;;;;5.85;3.70;;;18.10;72.20;;;;;;4958263;29;20047;-79
2022/05/02 15:59:42;;;;;;;11.20;4.07;;;18.00;74.10;;;;;;4941418;29;20190;-81
2022/05/02 16:02:13;;;;;;;9.00;4.20;;;18.00;77.30;;;;;;4958279;29;20074;-81
2022/05/02 16:04:59;;;;;;;7.10;4.35;;;18.10;77.70;;;;;;4941250;29;20054;-82
2022/05/02 16:10:44;;;;;;;7.68;4.03;;;18.50;82.00;;;;;;4940866;29;20134;-81
2022/05/02 16:13:13;;;;;;;8.43;4.03;;;18.90;82.60;;;;;;4941135;29;20055;-81
2022/05/02 16:15:46;;;;;;;5.57;3.78;;;19.10;81.30;;;;;;4958098;29;20053;-82
2022/05/02 16:18:14;;;;;;;7.75;3.83;;;19.20;79.70;;;;;;4940665;29;20047;-80
2022/05/02 16:20:41;;;;;;;8.13;4.25;;;19.20;79.10;;;;;;4939992;29;20074;-78
2022/05/02 16:23:14;;;;;;;7.80;3.53;;;19.20;78.90;;;;;;4940484;29;20044;-80
2022/05/02 16:25:43;;;;;;;6.35;3.80;;;19.40;79.10;;;;;;4940121;29;20062;-79
2022/05/02 16:28:20;;;;;;;6.07;3.40;;;19.50;78.80;;;;;;4939962;29;20059;-80
2022/05/02 16:30:48;;;;;;;6.97;4.00;;;19.50;78.80;;;;;;4924457;29;20506;-80
2022/05/02 16:33:21;;;;;;;6.10;3.42;;;19.00;76.80;;;;;;4940111;29;20086;-80
2022/05/02 16:35:48;;;;;;;6.85;3.40;;;19.00;77.60;;;;;;4939482;29;20496;-80
2022/05/02 16:38:17;;;;;;;5.88;3.22;;;19.00;78.00;;;;;;4939446;29;20535;-82
2022/05/02 16:40:46;;;;;;;5.68;3.33;;;19.00;78.00;;;;;;4939385;29;20074;-81
2022/05/02 16:43:11;;;;;;;5.18;3.20;;;19.20;78.40;;;;;;4924261;29;20045;-78
2022/05/02 16:45:37;;;;;;;9.40;3.38;;;19.20;77.80;;;;;;4956884;29;20039;-79
2022/05/02 16:48:09;;;;;;;6.63;3.22;;;19.20;75.30;;;;;;4939159;29;20097;-80
2022/05/02 16:50:37;;;;;;;7.15;3.47;;;19.00;73.80;;;;;;4939451;29;20065;-76
2022/05/02 16:53:04;;;;;;;5.35;2.90;;;18.70;72.70;;;;;;4957134;29;20035;-79
2022/05/02 16:55:31;;;;;;;5.95;2.55;;;18.50;73.10;;;;;;4956173;29;20047;-83
2022/05/02 16:58:13;;;;;;;3.97;2.35;;;18.40;72.00;;;;;;4956419;29;20039;-77
2022/05/02 17:00:56;;;;;;;7.90;2.63;;;18.40;70.40;;;;;;4938727;29;20031;-81
2022/05/02 17:03:30;;;;;;;4.15;2.08;;;18.30;70.40;;;;;;4938920;29;20131;-80
2022/05/02 17:06:01;;;;;;;3.78;1.90;;;18.20;69.00;;;;;;4938791;29;20035;-80
2022/05/02 17:08:27;;;;;;;8.23;1.73;;;18.10;67.50;;;;;;4938780;29;20043;-80
2022/05/02 17:10:55;;;;;;;6.43;1.67;;;17.90;67.10;;;;;;4938859;29;20042;-81